Norristown, Pennsylvania
Current Conditions -  °F | °C
As of 11:15 PM on Wednesday 26 Nov 2014 (Local Time) from KLOM Reporting Station
Scattered Clouds Scattered Clouds  
Wind Chill: 36°   Ceiling: Unl
Heat Index: 36°   Visibility: 10mi
Dew Point: 32°   Wind: 0mph
Humidity: 87%   Direction: NA
Pressure: 29.88"   Gusts: NA
Location:  40.11°N, 75.34°W
Report Text: KLOM 270415Z AUTO 00000KT 10SM SCT070 02/00 A2988 RMK AO1
Loading
Personal Weather Stations






























Interactive Weather Map New forecast layout! Learn more

10-Day Weather Forecast

Advertisements
Track Severe Weather on mobile